Terminal Aerodrome Forecast
Issued by NWS

Home | Current Version | Previous Version | Text Only | Print | Product List | Glossary On
Versions: 1 2 3 4 5 6 7 8 9 10 11 12
000
FTUS42 KTAE 212320
TAFABY
TAF
KABY 212320Z 2200/2224 14003KT P6SM SCT050 SCT100
      TEMPO 2200/2201 6SM -RA BKN035
     FM221800 20004KT P6SM TS BKN040CB=

USA.gov is the U.S. government's official web portal to all federal, state and local government web resources and services.